Hilton Head, South Carolina
Current Conditions -  °F | °C
As of 4:15 AM on Wednesday 22 Oct 2014 (Local Time) from KHXD Reporting Station
Clear Clear  
Wind Chill: 61°   Ceiling: Unl
Heat Index: 61°   Visibility: NA
Dew Point: 52°   Wind: 13mph
Humidity: 72%   Direction: 350°N
Pressure: 29.96"   Gusts: 16mph
Location:  32.2222°N, 80.7332°W
Report Text: KHXD 220815Z AUTO 35011G14KT CLR 16/11 A2996 RMK AO2 P0000
Loading
Personal Weather Stations






























Interactive Weather Map
Tropical Storm Tracking
New forecast layout! Learn more

10-Day Weather Forecast

Advertisements
Track Severe Weather on mobile